Time;durP1;ratioP1;P1;durP2;ratioP2;P2;SDS_P1;SDS_P2;PMS_P1;PMS_P2;Temp;Humidity;BMP_temperature;BMP_pressure;BME280_temperature;BME280_humidity;BME280_pressure;Samples;Min_cycle;Max_cycle;Signal;HPM_P1;HPM_P2
2022/12/28 07:05:50;;;;;;;8.55;4.85;;;;;;;7.48;100.00;100964.53;5280806;28;20394;-79
2022/12/28 07:08:22;;;;;;;7.57;4.78;;;;;;;7.50;100.00;100954.88;5280755;28;20049;-79
2022/12/28 07:10:53;;;;;;;7.00;4.55;;;;;;;7.53;100.00;100959.03;5260320;28;20032;-80
2022/12/28 07:13:24;;;;;;;5.10;4.60;;;;;;;7.54;100.00;100964.31;5259140;28;20029;-80
2022/12/28 07:15:56;;;;;;;6.32;4.95;;;;;;;7.57;100.00;100963.75;5260263;28;20031;-80
2022/12/28 07:18:27;;;;;;;4.82;4.30;;;;;;;7.57;100.00;100961.00;5258726;28;20503;-79
2022/12/28 07:21:05;;;;;;;4.55;3.83;;;;;;;7.61;100.00;100955.75;5260817;28;20021;-80
2022/12/28 07:23:37;;;;;;;5.65;4.47;;;;;;;7.67;100.00;100960.22;5263536;28;20037;-80
2022/12/28 07:26:14;;;;;;;7.20;4.43;;;;;;;7.68;100.00;100959.13;5264873;28;20468;-80
2022/12/28 07:28:47;;;;;;;5.88;4.05;;;;;;;7.67;100.00;100946.44;5262392;28;20025;-79
2022/12/28 07:31:22;;;;;;;6.15;4.03;;;;;;;7.67;100.00;100956.63;5280818;28;20037;-80
2022/12/28 07:33:54;;;;;;;5.82;3.38;;;;;;;7.73;100.00;100959.16;5265819;28;20022;-79
2022/12/28 07:36:28;;;;;;;5.88;3.53;;;;;;;7.72;100.00;100951.97;5265750;28;20104;-79
2022/12/28 07:38:59;;;;;;;3.58;3.28;;;;;;;7.74;100.00;100958.03;5268687;28;20025;-79
2022/12/28 07:41:32;;;;;;;4.47;3.30;;;;;;;7.79;100.00;100946.19;5267105;28;20032;-79
2022/12/28 07:44:04;;;;;;;3.67;3.38;;;;;;;7.76;100.00;100955.84;5283695;28;20024;-80
2022/12/28 07:46:37;;;;;;;4.05;3.30;;;;;;;7.82;100.00;100952.03;5277681;28;20024;-76
2022/12/28 07:49:08;;;;;;;3.53;3.10;;;;;;;7.80;100.00;100948.69;5269175;28;20033;-79
2022/12/28 07:51:39;;;;;;;3.70;3.30;;;;;;;7.82;100.00;100962.22;5260513;28;20457;-79
2022/12/28 07:54:10;;;;;;;4.82;3.53;;;;;;;7.79;100.00;100958.06;5258627;28;20033;-80
2022/12/28 07:56:42;;;;;;;3.30;3.00;;;;;;;7.81;100.00;100961.38;5258452;28;20029;-80
2022/12/28 07:59:13;;;;;;;6.28;3.30;;;;;;;7.82;100.00;100962.22;5258277;28;20362;-80
2022/12/28 08:01:47;;;;;;;3.92;3.50;;;;;;;7.82;100.00;100960.31;5258440;28;20418;-80
2022/12/28 08:04:19;;;;;;;5.35;3.40;;;;;;;7.89;100.00;100959.22;5258420;28;20041;-80
2022/12/28 08:06:50;;;;;;;4.10;2.80;;;;;;;7.86;100.00;100960.59;5274271;28;20104;-80
2022/12/28 08:09:21;;;;;;;4.15;3.65;;;;;;;7.86;100.00;100957.00;5279327;28;20032;-80
2022/12/28 08:11:53;;;;;;;5.25;3.22;;;;;;;7.89;100.00;100953.69;5279785;28;20476;-81
2022/12/28 08:14:24;;;;;;;4.85;3.63;;;;;;;7.94;100.00;100957.31;5278284;28;20070;-76
2022/12/28 08:16:56;;;;;;;3.58;3.28;;;;;;;7.91;100.00;100959.78;5268414;28;20020;-82
2022/12/28 08:19:30;;;;;;;4.82;3.50;;;;;;;7.94;100.00;100962.84;5268073;28;20051;-82
2022/12/28 08:22:01;;;;;;;4.50;3.55;;;;;;;7.98;100.00;100949.34;5253034;28;20476;-81
2022/12/28 08:24:34;;;;;;;5.68;4.15;;;;;;;7.98;100.00;100957.63;5255916;28;20021;-81
2022/12/28 08:27:05;;;;;;;4.78;2.97;;;;;;;8.03;100.00;100952.13;5269738;28;20079;-80
2022/12/28 08:29:37;;;;;;;7.47;3.58;;;;;;;8.07;100.00;100950.47;5279916;28;20029;-82
2022/12/28 08:32:08;;;;;;;7.80;4.28;;;;;;;8.04;100.00;100948.25;5265365;28;20029;-82
2022/12/28 08:34:39;;;;;;;7.93;3.45;;;;;;;8.06;100.00;100951.56;5264948;28;20095;-82
2022/12/28 08:37:10;;;;;;;5.88;3.90;;;;;;;8.06;100.00;100954.34;5264759;28;20088;-80
2022/12/28 08:39:42;;;;;;;4.88;3.20;;;;;;;8.07;100.00;100951.28;5257254;28;20080;-80
2022/12/28 08:42:13;;;;;;;4.30;3.90;;;;;;;8.03;100.00;100952.13;5245205;28;20338;-79
2022/12/28 08:44:44;;;;;;;7.15;4.18;;;;;;;8.06;100.00;100944.13;5257559;28;20047;-80
2022/12/28 08:47:18;;;;;;;4.60;3.78;;;;;;;8.05;100.00;100945.22;5269016;28;20039;-79
2022/12/28 08:49:50;;;;;;;8.68;4.35;;;;;;;8.13;100.00;100954.91;5263958;28;20025;-80
2022/12/28 08:52:23;;;;;;;5.03;3.75;;;;;;;8.14;100.00;100956.56;5266728;28;20090;-79
2022/12/28 08:54:54;;;;;;;4.72;3.70;;;;;;;8.11;100.00;100950.78;5269291;28;20033;-80
2022/12/28 08:57:26;;;;;;;4.20;3.80;;;;;;;8.12;100.00;100946.88;5253624;28;20116;-79
2022/12/28 08:59:57;;;;;;;5.50;3.83;;;;;;;8.11;100.00;100957.13;5247291;28;20030;-79
2022/12/28 09:02:28;;;;;;;4.88;3.67;;;;;;;8.12;100.00;100956.00;5245708;28;20168;-79
2022/12/28 09:04:59;;;;;;;4.82;3.63;;;;;;;8.10;100.00;100954.63;5245358;28;20121;-79
2022/12/28 09:07:31;;;;;;;5.72;3.42;;;;;;;8.17;100.00;100947.72;5245833;28;20029;-79
2022/12/28 09:10:03;;;;;;;4.18;3.65;;;;;;;8.12;100.00;100952.41;5248626;28;20047;-79
2022/12/28 09:12:34;;;;;;;5.20;4.10;;;;;;;8.15;100.00;100951.88;5270448;28;20029;-79
2022/12/28 09:15:06;;;;;;;3.97;3.10;;;;;;;8.19;100.00;100955.75;5259152;28;20082;-82
2022/12/28 09:17:37;;;;;;;6.38;3.90;;;;;;;8.16;100.00;100950.78;5259919;28;20033;-79
2022/12/28 09:20:09;;;;;;;3.25;2.95;;;;;;;8.17;100.00;100946.91;5258745;28;20357;-78
2022/12/28 09:22:43;;;;;;;5.95;3.60;;;;;;;8.15;100.00;100958.22;5269780;28;20108;-79
2022/12/28 09:25:14;;;;;;;5.00;3.22;;;;;;;8.23;100.00;100960.47;5268182;28;20033;-78
2022/12/28 09:27:49;;;;;;;5.10;3.50;;;;;;;8.24;100.00;100953.03;5264763;28;20425;-78
2022/12/28 09:30:20;;;;;;;5.22;3.35;;;;;;;8.24;100.00;100961.31;5265482;28;20036;-79
2022/12/28 09:33:57;;;;;;;4.22;2.95;;;;;;;8.25;100.00;100949.13;5259789;28;20021;-77
2022/12/28 09:35:44;;;;;;;5.25;2.67;;;;;;;8.25;100.00;100952.72;5254737;28;20557;-74
2022/12/28 09:38:18;;;;;;;5.15;2.88;;;;;;;8.34;100.00;100943.94;5262703;28;20059;-76
2022/12/28 09:40:50;;;;;;;4.78;3.17;;;;;;;8.41;100.00;100952.81;5263236;28;20052;-77
2022/12/28 09:43:21;;;;;;;3.00;2.70;;;;;;;8.36;100.00;100953.63;5263529;28;20045;-76
2022/12/28 09:45:54;;;;;;;6.63;2.90;;;;;;;8.33;100.00;100959.66;5262556;28;20476;-77
2022/12/28 09:48:26;;;;;;;3.17;2.28;;;;;;;8.42;100.00;100952.53;5250110;28;20104;-77
2022/12/28 09:50:58;;;;;;;6.78;3.25;;;;;;;8.41;100.00;100950.03;5241854;28;20092;-80
2022/12/28 09:53:32;;;;;;;4.28;2.80;;;;;;;8.38;100.00;100947.78;5251287;28;20033;-81
2022/12/28 09:56:34;;;;;;;4.50;2.40;;;;;;;8.48;100.00;100947.84;5262763;28;20100;-81
2022/12/28 09:59:13;;;;;;;3.30;2.25;;;;;;;8.44;100.00;100950.34;5262506;28;20484;-81
2022/12/28 10:01:52;;;;;;;3.00;1.92;;;;;;;8.45;100.00;100956.69;5263028;28;20025;-81
2022/12/28 10:04:24;;;;;;;2.85;2.30;;;;;;;8.42;100.00;100951.72;5261816;28;20370;-80
2022/12/28 10:06:56;;;;;;;3.72;2.55;;;;;;;8.47;100.00;100946.19;5262083;28;20024;-79
2022/12/28 10:09:32;;;;;;;2.83;2.10;;;;;;;8.47;100.00;100947.03;5262574;28;20025;-79
2022/12/28 10:12:20;;;;;;;2.85;2.05;;;;;;;8.46;100.00;100947.28;5263064;28;20063;-79
2022/12/28 10:14:52;;;;;;;2.28;2.08;;;;;;;8.47;100.00;100943.44;5261612;28;20059;-78
2022/12/28 10:17:29;;;;;;;3.45;2.20;;;;;;;8.48;100.00;100943.16;5262763;28;20048;-78
2022/12/28 10:20:00;;;;;;;2.30;2.10;;;;;;;8.49;100.00;100942.06;5261441;28;20083;-79
2022/12/28 10:22:37;;;;;;;3.08;2.17;;;;;;;8.49;100.00;100927.41;5248621;28;20021;-78
2022/12/28 10:25:20;;;;;;;2.08;1.85;;;;;;;8.51;100.00;100924.34;5241638;28;20064;-78
2022/12/28 10:27:52;;;;;;;2.30;2.10;;;;;;;8.52;100.00;100929.63;5240266;28;20380;-77
2022/12/28 10:30:25;;;;;;;2.75;2.22;;;;;;;8.60;100.00;100925.50;5241825;28;20017;-78
2022/12/28 10:32:59;;;;;;;5.70;3.17;;;;;;;8.48;100.00;100922.97;5241897;28;20556;-78
2022/12/28 10:35:40;;;;;;;4.93;2.40;;;;;;;8.54;100.00;100916.38;5240894;28;20029;-78
2022/12/28 10:38:28;;;;;;;4.57;2.42;;;;;;;8.58;100.00;100920.22;5244395;28;20048;-78
2022/12/28 10:41:03;;;;;;;3.00;2.28;;;;;;;8.53;100.00;100917.44;5261749;28;20206;-77
2022/12/28 10:43:38;;;;;;;4.50;2.92;;;;;;;8.57;100.00;100920.50;5262016;28;20017;-77
2022/12/28 10:46:18;;;;;;;3.75;2.75;;;;;;;8.63;100.00;100920.22;5257636;28;20037;-81
2022/12/28 10:48:57;;;;;;;3.63;3.05;;;;;;;8.60;100.00;100914.44;5254707;28;20025;-80
2022/12/28 10:51:29;;;;;;;4.32;2.60;;;;;;;8.60;100.00;100915.25;5242277;28;20078;-80
2022/12/28 10:54:00;;;;;;;3.13;2.72;;;;;;;8.58;100.00;100911.94;5256474;28;20157;-79
2022/12/28 10:56:42;;;;;;;4.90;2.75;;;;;;;8.59;100.00;100910.84;5242526;28;20029;-79
2022/12/28 10:59:26;;;;;;;3.00;2.70;;;;;;;8.54;100.00;100905.31;5243395;28;20030;-79
2022/12/28 11:02:26;;;;;;;2.53;2.33;;;;;;;8.64;100.00;100907.22;5249579;28;20029;-78
2022/12/28 11:05:00;;;;;;;5.28;2.95;;;;;;;8.64;100.00;100894.25;5262788;28;20496;-79
2022/12/28 11:07:41;;;;;;;4.60;2.55;;;;;;;8.66;100.00;100902.25;5262267;28;20104;-80
2022/12/28 11:10:26;;;;;;;4.07;2.63;;;;;;;8.64;100.00;100904.47;5261439;28;20025;-76
2022/12/28 11:13:08;;;;;;;4.30;2.65;;;;;;;8.62;100.00;100895.63;5256693;28;20056;-76
2022/12/28 11:15:39;;;;;;;3.70;2.97;;;;;;;8.62;100.00;100901.16;5261721;28;20029;-77
2022/12/28 11:18:15;;;;;;;2.65;2.45;;;;;;;8.67;100.00;100898.41;5260301;28;20032;-78
2022/12/28 11:20:52;;;;;;;3.20;2.53;;;;;;;8.64;100.00;100899.78;5261399;28;20245;-79
2022/12/28 11:23:30;;;;;;;3.25;2.70;;;;;;;8.62;100.00;100895.63;5261067;28;20032;-79
2022/12/28 11:26:01;;;;;;;3.10;2.80;;;;;;;8.62;100.00;100879.88;5261313;28;20087;-81
2022/12/28 11:28:32;;;;;;;4.70;2.42;;;;;;;8.67;100.00;100882.66;5262157;28;20064;-81
2022/12/28 11:31:04;;;;;;;2.42;2.17;;;;;;;8.75;100.00;100872.97;5242197;28;20112;-80
2022/12/28 11:33:47;;;;;;;6.28;3.30;;;;;;;8.73;100.00;100874.34;5240989;28;20029;-79
2022/12/28 11:36:21;;;;;;;3.72;2.40;;;;;;;8.66;100.00;100861.63;5241309;28;20034;-79
2022/12/28 11:38:55;;;;;;;3.85;2.88;;;;;;;8.71;100.00;100867.16;5240420;28;20049;-78
2022/12/28 11:41:27;;;;;;;4.80;2.33;;;;;;;8.70;100.00;100853.63;5241151;28;20415;-78
2022/12/28 11:44:01;;;;;;;2.90;2.47;;;;;;;8.74;100.00;100854.69;5249313;28;20036;-78
2022/12/28 11:46:36;;;;;;;4.70;2.90;;;;;;;8.78;100.00;100855.00;5260315;28;20029;-78
2022/12/28 11:49:27;;;;;;;4.55;4.05;;;;;;;8.74;100.00;100851.94;5246525;28;20036;-78
2022/12/28 11:52:16;;;;;;;4.22;2.55;;;;;;;8.77;100.00;100843.09;5242580;28;20041;-78
2022/12/28 11:54:51;;;;;;;5.43;2.47;;;;;;;8.77;100.00;100845.03;5244381;28;20389;-77
2022/12/28 11:57:35;;;;;;;4.30;2.50;;;;;;;8.81;100.00;100821.25;5244314;28;20033;-78
2022/12/28 12:00:47;;;;;;;5.75;3.10;;;;;;;8.70;100.00;100812.97;5243881;28;20033;-78
2022/12/28 12:03:19;;;;;;;3.38;2.33;;;;;;;8.76;100.00;100818.50;5247452;28;20041;-76
2022/12/28 12:05:50;;;;;;;4.88;4.05;;;;;;;8.73;100.00;100819.88;5264038;28;20494;-78
2022/12/28 12:08:21;;;;;;;5.35;2.70;;;;;;;8.71;100.00;100811.84;5250539;28;20105;-78
2022/12/28 12:11:24;;;;;;;5.57;2.90;;;;;;;8.75;100.00;100819.59;5244505;28;20026;-78
2022/12/28 12:13:59;;;;;;;6.18;2.85;;;;;;;8.73;100.00;100810.75;5243296;28;20393;-78
2022/12/28 12:16:46;;;;;;;5.32;2.65;;;;;;;8.75;100.00;100806.59;5244097;28;20025;-78
2022/12/28 12:19:26;;;;;;;5.70;2.55;;;;;;;8.76;100.00;100805.47;5244195;28;20081;-79
2022/12/28 12:22:09;;;;;;;5.85;2.78;;;;;;;8.78;100.00;100805.22;5261024;28;20028;-78
2022/12/28 12:24:47;;;;;;;3.25;2.45;;;;;;;8.81;100.00;100799.13;5265049;28;20040;-77
2022/12/28 12:27:31;;;;;;;4.55;2.47;;;;;;;8.78;100.00;100792.22;5264190;28;20074;-77
2022/12/28 12:30:14;;;;;;;5.13;2.35;;;;;;;8.78;100.00;100788.63;5265013;28;20464;-76
2022/12/28 12:32:51;;;;;;;6.07;2.45;;;;;;;8.76;100.00;100780.59;5267356;28;20029;-79
2022/12/28 12:35:28;;;;;;;4.85;2.20;;;;;;;8.82;100.00;100775.88;5265838;28;20475;-78
2022/12/28 12:38:06;;;;;;;4.07;2.30;;;;;;;8.78;100.00;100770.09;5258580;28;20014;-78
2022/12/28 12:40:49;;;;;;;4.47;2.50;;;;;;;8.80;100.00;100753.22;5262548;28;20029;-77
2022/12/28 12:43:29;;;;;;;3.50;2.38;;;;;;;8.83;100.00;100755.44;5249227;28;20030;-77
2022/12/28 12:46:33;;;;;;;7.35;2.55;;;;;;;8.84;100.00;100748.78;5244547;28;20431;-76
2022/12/28 12:49:14;;;;;;;4.25;2.47;;;;;;;8.92;100.00;100746.28;5242560;28;20018;-76
2022/12/28 12:52:09;;;;;;;6.88;3.05;;;;;;;8.88;100.00;100731.34;5243299;28;20029;-77
2022/12/28 12:54:59;;;;;;;7.43;2.90;;;;;;;8.97;100.00;100726.06;5249479;28;20031;-77
2022/12/28 12:57:37;;;;;;;6.82;2.90;;;;;;;8.93;100.00;100719.44;5249842;28;20376;-76
2022/12/28 13:00:20;;;;;;;5.78;3.13;;;;;;;8.92;100.00;100720.53;5253263;28;20554;-75
2022/12/28 13:03:01;;;;;;;7.38;2.80;;;;;;;8.94;100.00;100712.78;5262701;28;20027;-74
2022/12/28 13:05:35;;;;;;;5.15;2.42;;;;;;;8.97;100.00;100712.22;5263837;28;20144;-74
2022/12/28 13:08:20;;;;;;;4.22;3.05;;;;;;;8.99;100.00;100712.78;5263644;28;20128;-73
2022/12/28 13:10:53;;;;;;;8.52;3.05;;;;;;;8.96;100.00;100699.53;5262550;28;20056;-73
2022/12/28 13:13:34;;;;;;;4.40;2.80;;;;;;;9.01;100.00;100696.72;5243087;28;20026;-74
2022/12/28 13:16:13;;;;;;;3.88;2.30;;;;;;;9.02;100.00;100687.31;5242331;28;20400;-73
2022/12/28 13:18:57;;;;;;;5.72;2.63;;;;;;;9.06;100.00;100676.53;5242783;28;20030;-73
2022/12/28 13:21:38;;;;;;;5.90;2.83;;;;;;;8.99;100.00;100682.34;5243562;28;20029;-74
2022/12/28 13:24:19;;;;;;;6.03;2.40;;;;;;;9.09;100.00;100679.53;5251834;28;20017;-74
2022/12/28 13:26:53;;;;;;;5.55;2.70;;;;;;;9.02;100.00;100664.34;5263059;28;20017;-75
2022/12/28 13:29:27;;;;;;;6.78;2.80;;;;;;;8.99;100.00;100657.47;5258572;28;20020;-74
2022/12/28 13:31:58;;;;;;;7.40;3.50;;;;;;;9.03;100.00;100653.03;5262694;28;20074;-77
2022/12/28 13:34:34;;;;;;;6.50;3.10;;;;;;;9.02;100.00;100639.47;5256726;28;20029;-76
2022/12/28 13:37:14;;;;;;;5.35;2.70;;;;;;;9.02;100.00;100634.75;5251439;28;20049;-75
2022/12/28 13:39:46;;;;;;;7.82;2.92;;;;;;;8.99;100.00;100627.03;5262865;28;20048;-75
2022/12/28 13:42:38;;;;;;;7.07;2.45;;;;;;;8.99;100.00;100628.97;5261456;28;20370;-74
2022/12/28 13:45:15;;;;;;;10.45;4.15;;;;;;;9.01;100.00;100624.81;5249258;28;20029;-74
2022/12/28 13:47:49;;;;;;;5.07;2.78;;;;;;;9.04;100.00;100615.94;5244516;28;20029;-74
2022/12/28 13:50:28;;;;;;;5.43;2.45;;;;;;;9.04;100.00;100610.41;5262923;28;20112;-75
2022/12/28 13:53:04;;;;;;;5.82;2.70;;;;;;;9.04;100.00;100604.88;5254459;28;20064;-75
2022/12/28 13:55:50;;;;;;;7.05;2.53;;;;;;;9.06;100.00;100588.81;5244531;28;20135;-76
2022/12/28 13:58:29;;;;;;;3.13;2.22;;;;;;;9.10;100.00;100565.03;5241607;28;20080;-75
2022/12/28 14:01:03;;;;;;;6.00;2.60;;;;;;;9.13;100.00;100561.66;5242281;28;20022;-77
2022/12/28 14:03:40;;;;;;;4.90;2.47;;;;;;;9.12;100.00;100557.22;5256087;28;20100;-75
2022/12/28 14:06:15;;;;;;;3.75;2.45;;;;;;;9.13;100.00;100555.31;5259275;28;20028;-75
2022/12/28 14:08:47;;;;;;;5.05;2.78;;;;;;;9.12;100.00;100548.94;5245232;28;20373;-76
2022/12/28 14:11:19;;;;;;;22.55;17.83;;;;;;;9.16;100.00;100551.97;5259156;28;20036;-76
2022/12/28 14:13:51;;;;;;;22.60;16.00;;;;;;;9.18;100.00;100546.13;5260840;28;20379;-75
2022/12/28 14:16:23;;;;;;;5.78;3.10;;;;;;;9.17;100.00;100527.88;5263157;28;20491;-74
2022/12/28 14:18:56;;;;;;;7.13;2.95;;;;;;;9.21;100.00;100531.75;5249461;28;20025;-76
2022/12/28 14:21:54;;;;;;;8.20;3.17;;;;;;;9.22;100.00;100533.38;5257423;28;20032;-75
2022/12/28 14:24:28;;;;;;;8.15;3.63;;;;;;;9.22;100.00;100541.69;5241997;28;20068;-77
2022/12/28 14:26:59;;;;;;;5.78;2.40;;;;;;;9.28;100.00;100537.75;5260173;28;20104;-74
2022/12/28 14:29:33;;;;;;;10.35;3.78;;;;;;;9.27;100.00;100525.03;5240609;28;20104;-71
2022/12/28 14:32:12;;;;;;;5.20;2.95;;;;;;;9.31;100.00;100526.94;5241641;28;20531;-76
2022/12/28 14:34:44;;;;;;;5.10;2.58;;;;;;;9.29;100.00;100522.81;5240989;28;20029;-77
2022/12/28 14:37:36;;;;;;;4.10;2.88;;;;;;;9.33;100.00;100515.56;5252829;28;20055;-76
2022/12/28 14:40:25;;;;;;;5.80;2.78;;;;;;;9.32;100.00;100516.69;5254914;28;20043;-75
2022/12/28 14:42:57;;;;;;;5.18;3.33;;;;;;;9.36;100.00;100503.94;5250367;28;20024;-75
2022/12/28 14:45:45;;;;;;;8.07;2.60;;;;;;;9.41;100.00;100500.28;5261729;28;20403;-76
2022/12/28 14:48:31;;;;;;;4.95;3.50;;;;;;;9.34;100.00;100495.09;5261068;28;20053;-75
2022/12/28 14:51:21;;;;;;;6.18;2.75;;;;;;;9.34;100.00;100475.72;5261412;28;20041;-75
2022/12/28 14:54:25;;;;;;;5.15;2.33;;;;;;;9.38;100.00;100487.84;5242771;28;20025;-75
2022/12/28 14:57:03;;;;;;;6.30;2.30;;;;;;;9.33;100.00;100485.13;5257316;28;20025;-75
2022/12/28 14:59:38;;;;;;;4.28;2.15;;;;;;;9.35;100.00;100480.13;5256919;28;20021;-75
2022/12/28 15:02:31;;;;;;;4.38;2.42;;;;;;;9.40;100.00;100474.56;5246687;28;20370;-76
2022/12/28 15:05:23;;;;;;;3.47;2.28;;;;;;;9.35;100.00;100474.59;5240242;28;20092;-76
2022/12/28 15:07:54;;;;;;;7.82;2.65;;;;;;;9.37;100.00;100458.53;5240995;28;20108;-76
2022/12/28 15:10:29;;;;;;;7.22;2.40;;;;;;;9.38;100.00;100449.09;5244770;28;20115;-71
2022/12/28 15:13:00;;;;;;;4.80;2.50;;;;;;;9.36;100.00;100448.59;5258138;28;20025;-71
2022/12/28 15:15:31;;;;;;;5.00;2.47;;;;;;;9.36;100.00;100451.38;5239652;28;20075;-75
2022/12/28 15:18:03;;;;;;;10.50;6.60;;;;;;;9.36;100.00;100443.06;5241004;28;20025;-75
2022/12/28 15:20:36;;;;;;;5.68;3.25;;;;;;;9.36;100.00;100432.81;5249071;28;20092;-77
2022/12/28 15:23:07;;;;;;;5.72;2.70;;;;;;;9.35;100.00;100430.31;5240201;28;20422;-76
2022/12/28 15:25:39;;;;;;;5.75;2.50;;;;;;;9.36;100.00;100424.50;5241235;28;20025;-75
2022/12/28 15:28:10;;;;;;;6.65;2.60;;;;;;;9.40;100.00;100435.00;5255827;28;20025;-76
2022/12/28 15:30:42;;;;;;;5.10;2.70;;;;;;;9.40;100.00;100426.69;5259607;28;20083;-75
2022/12/28 15:33:13;;;;;;;5.75;3.75;;;;;;;9.42;100.00;100421.69;5264873;28;20029;-74
2022/12/28 15:35:45;;;;;;;5.57;2.25;;;;;;;9.41;100.00;100418.09;5265711;28;20032;-75
2022/12/28 15:38:16;;;;;;;6.10;3.70;;;;;;;9.36;100.00;100409.84;5263273;28;20029;-75
2022/12/28 15:40:47;;;;;;;6.22;2.30;;;;;;;9.38;100.00;100410.38;5247313;28;20030;-76
2022/12/28 15:43:18;;;;;;;13.30;10.63;;;;;;;9.42;100.00;100399.56;5256943;28;20025;-75
2022/12/28 15:45:54;;;;;;;4.38;3.10;;;;;;;9.43;100.00;100390.13;5248161;28;20112;-75
2022/12/28 15:48:29;;;;;;;;;;;;;;;9.53;100.00;100390.00;5245385;28;20060;-74
2022/12/28 15:51:00;;;;;;;5.05;2.22;;;;;;;9.44;100.00;100398.13;5244065;28;20413;-76
2022/12/28 15:53:31;;;;;;;8.75;4.78;;;;;;;9.47;100.00;100386.47;5263763;28;20029;-76
2022/12/28 15:56:03;;;;;;;4.05;2.50;;;;;;;9.42;100.00;100385.72;5260693;28;20531;-76
2022/12/28 15:58:34;;;;;;;5.97;2.60;;;;;;;9.37;100.00;100389.34;5263399;28;20017;-75
2022/12/28 16:01:05;;;;;;;4.93;2.53;;;;;;;9.34;100.00;100381.63;5254600;28;20527;-75
2022/12/28 16:03:37;;;;;;;5.72;2.30;;;;;;;9.30;100.00;100383.34;5249014;28;20058;-75
2022/12/28 16:06:08;;;;;;;4.30;2.72;;;;;;;9.32;100.00;100372.81;5245587;28;20036;-75
2022/12/28 16:08:39;;;;;;;5.47;2.40;;;;;;;9.28;100.00;100368.94;5256811;28;20049;-75
2022/12/28 16:11:17;;;;;;;6.65;2.35;;;;;;;9.27;100.00;100364.56;5264517;28;20076;-74
2022/12/28 16:13:53;;;;;;;3.08;2.10;;;;;;;9.25;100.00;100370.38;5263963;28;20025;-76
2022/12/28 16:16:27;;;;;;;5.85;2.40;;;;;;;9.27;100.00;100361.78;5261502;28;20025;-76
2022/12/28 16:19:01;;;;;;;4.75;2.20;;;;;;;9.23;100.00;100355.19;5243218;28;20026;-76
2022/12/28 16:21:33;;;;;;;5.65;2.28;;;;;;;9.21;100.00;100351.91;5243864;28;20135;-76
2022/12/28 16:24:04;;;;;;;5.50;2.40;;;;;;;9.20;100.00;100347.47;5251527;28;20473;-76
2022/12/28 16:26:36;;;;;;;4.72;3.25;;;;;;;9.20;100.00;100339.16;5259365;28;20033;-76
2022/12/28 16:29:07;;;;;;;5.93;2.63;;;;;;;9.19;100.00;100330.03;5242834;28;20036;-76
2022/12/28 16:31:40;;;;;;;4.15;2.40;;;;;;;9.18;100.00;100336.72;5244017;28;20507;-76
2022/12/28 16:34:14;;;;;;;5.22;3.10;;;;;;;9.18;100.00;100319.25;5252185;28;20025;-76
2022/12/28 16:36:45;;;;;;;5.10;2.80;;;;;;;9.12;100.00;100318.50;5251669;28;20040;-76
